sensor_id;sensor_type;location;lat;lon;timestamp;pressure;altitude;pressure_sealevel;temperature;humidity
9740;BME280;4909;42.680;26.324;2023-01-25T00:01:39;100054.50;;;3.35;76.59
9740;BME280;4909;42.680;26.324;2023-01-25T00:04:08;100067.66;;;3.41;76.80
9740;BME280;4909;42.680;26.324;2023-01-25T00:06:34;100072.13;;;3.53;76.22
9740;BME280;4909;42.680;26.324;2023-01-25T00:09:01;100067.72;;;3.48;76.45
9740;BME280;4909;42.680;26.324;2023-01-25T00:11:28;100044.81;;;3.29;77.06
9740;BME280;4909;42.680;26.324;2023-01-25T00:13:55;100062.47;;;3.48;77.14
9740;BME280;4909;42.680;26.324;2023-01-25T00:16:23;100070.44;;;3.65;76.31
9740;BME280;4909;42.680;26.324;2023-01-25T00:18:50;100060.00;;;3.74;75.82
9740;BME280;4909;42.680;26.324;2023-01-25T00:21:20;100068.72;;;3.73;75.04
9740;BME280;4909;42.680;26.324;2023-01-25T00:23:46;100072.22;;;3.69;74.86
9740;BME280;4909;42.680;26.324;2023-01-25T00:26:14;100071.44;;;3.85;74.17
9740;BME280;4909;42.680;26.324;2023-01-25T00:28:41;100081.97;;;3.88;74.10
9740;BME280;4909;42.680;26.324;2023-01-25T00:31:10;100074.13;;;3.98;74.84
9740;BME280;4909;42.680;26.324;2023-01-25T00:33:49;100075.09;;;4.19;73.58
9740;BME280;4909;42.680;26.324;2023-01-25T00:36:31;100050.53;;;4.13;73.12
9740;BME280;4909;42.680;26.324;2023-01-25T00:38:59;100068.06;;;4.11;73.06
9740;BME280;4909;42.680;26.324;2023-01-25T00:41:25;100066.28;;;4.07;73.73
9740;BME280;4909;42.680;26.324;2023-01-25T00:43:52;100067.19;;;4.10;73.15
9740;BME280;4909;42.680;26.324;2023-01-25T00:46:19;100065.34;;;3.94;73.71
9740;BME280;4909;42.680;26.324;2023-01-25T00:48:46;100067.06;;;3.87;73.32
9740;BME280;4909;42.680;26.324;2023-01-25T00:51:13;100053.91;;;3.81;73.65
9740;BME280;4909;42.680;26.324;2023-01-25T00:53:41;100052.06;;;3.65;73.69
9740;BME280;4909;42.680;26.324;2023-01-25T00:56:08;100055.59;;;3.70;74.74
9740;BME280;4909;42.680;26.324;2023-01-25T00:58:34;100060.06;;;3.86;73.87
9740;BME280;4909;42.680;26.324;2023-01-25T01:01:02;100061.00;;;3.99;73.28
9740;BME280;4909;42.680;26.324;2023-01-25T01:03:29;100054.75;;;3.79;73.21
9740;BME280;4909;42.680;26.324;2023-01-25T01:06:00;100060.13;;;3.96;72.99
9740;BME280;4909;42.680;26.324;2023-01-25T01:08:27;100064.59;;;4.27;72.03
9740;BME280;4909;42.680;26.324;2023-01-25T01:10:59;100059.22;;;3.93;72.33
9740;BME280;4909;42.680;26.324;2023-01-25T01:13:27;100052.28;;;4.06;72.29
9740;BME280;4909;42.680;26.324;2023-01-25T01:15:54;100032.19;;;4.16;72.23
9740;BME280;4909;42.680;26.324;2023-01-25T01:18:21;100023.38;;;4.08;71.61
9740;BME280;4909;42.680;26.324;2023-01-25T01:20:49;100015.50;;;4.09;71.31
9740;BME280;4909;42.680;26.324;2023-01-25T01:23:15;100046.28;;;4.45;70.22
9740;BME280;4909;42.680;26.324;2023-01-25T01:25:42;100042.72;;;4.20;71.16
9740;BME280;4909;42.680;26.324;2023-01-25T01:28:12;100042.72;;;4.29;71.01
9740;BME280;4909;42.680;26.324;2023-01-25T01:30:39;100042.69;;;4.19;70.14
9740;BME280;4909;42.680;26.324;2023-01-25T01:33:06;100045.22;;;3.91;70.83
9740;BME280;4909;42.680;26.324;2023-01-25T01:35:32;100039.13;;;4.02;71.05
9740;BME280;4909;42.680;26.324;2023-01-25T01:37:59;100036.56;;;4.20;71.62
9740;BME280;4909;42.680;26.324;2023-01-25T01:40:26;100031.31;;;4.23;70.87
9740;BME280;4909;42.680;26.324;2023-01-25T01:42:58;100029.53;;;4.22;70.52
9740;BME280;4909;42.680;26.324;2023-01-25T01:45:55;100033.88;;;4.08;71.20
9740;BME280;4909;42.680;26.324;2023-01-25T01:48:31;100028.53;;;3.85;71.37
9740;BME280;4909;42.680;26.324;2023-01-25T01:51:02;100030.31;;;3.90;71.75
9740;BME280;4909;42.680;26.324;2023-01-25T01:53:31;100026.03;;;4.14;71.19
9740;BME280;4909;42.680;26.324;2023-01-25T01:56:01;100014.59;;;4.07;70.14
9740;BME280;4909;42.680;26.324;2023-01-25T01:58:31;100024.31;;;4.16;70.24
9740;BME280;4909;42.680;26.324;2023-01-25T02:00:59;100025.13;;;4.04;71.22
9740;BME280;4909;42.680;26.324;2023-01-25T02:03:27;100033.00;;;4.12;71.68
9740;BME280;4909;42.680;26.324;2023-01-25T02:05:59;100020.84;;;4.33;71.16
9740;BME280;4909;42.680;26.324;2023-01-25T02:08:31;100026.16;;;4.50;69.77
9740;BME280;4909;42.680;26.324;2023-01-25T02:10:59;100015.59;;;4.40;70.86
9740;BME280;4909;42.680;26.324;2023-01-25T02:13:27;100019.09;;;4.46;71.37
9740;BME280;4909;42.680;26.324;2023-01-25T02:15:54;100026.94;;;4.20;72.43
9740;BME280;4909;42.680;26.324;2023-01-25T02:18:23;100025.81;;;3.68;71.30
9740;BME280;4909;42.680;26.324;2023-01-25T02:20:51;100027.47;;;3.43;72.55
9740;BME280;4909;42.680;26.324;2023-01-25T02:23:23;100025.81;;;3.68;72.24
9740;BME280;4909;42.680;26.324;2023-01-25T02:25:54;100019.75;;;3.78;72.32
9740;BME280;4909;42.680;26.324;2023-01-25T02:28:26;100031.28;;;4.06;71.33
9740;BME280;4909;42.680;26.324;2023-01-25T02:30:53;100032.03;;;3.84;71.53
9740;BME280;4909;42.680;26.324;2023-01-25T02:33:22;100016.34;;;4.04;70.97
9740;BME280;4909;42.680;26.324;2023-01-25T02:35:52;100031.25;;;4.02;69.60
9740;BME280;4909;42.680;26.324;2023-01-25T02:38:20;100032.78;;;3.57;70.02
9740;BME280;4909;42.680;26.324;2023-01-25T02:40:50;100024.06;;;3.61;68.78
9740;BME280;4909;42.680;26.324;2023-01-25T02:43:19;100030.00;;;3.36;69.51
9740;BME280;4909;42.680;26.324;2023-01-25T02:45:50;100022.28;;;3.57;69.66
9740;BME280;4909;42.680;26.324;2023-01-25T02:48:17;100026.84;;;3.98;68.98
9740;BME280;4909;42.680;26.324;2023-01-25T02:50:44;100030.38;;;4.01;68.32
9740;BME280;4909;42.680;26.324;2023-01-25T02:53:11;100024.25;;;4.01;67.86
9740;BME280;4909;42.680;26.324;2023-01-25T02:55:38;100032.03;;;3.82;69.04
9740;BME280;4909;42.680;26.324;2023-01-25T02:58:04;100025.00;;;3.72;69.35
9740;BME280;4909;42.680;26.324;2023-01-25T03:00:34;100036.28;;;3.61;69.42
9740;BME280;4909;42.680;26.324;2023-01-25T03:03:01;100033.66;;;3.61;68.86
9740;BME280;4909;42.680;26.324;2023-01-25T03:05:27;100033.69;;;3.62;68.93
9740;BME280;4909;42.680;26.324;2023-01-25T03:07:54;100029.34;;;3.67;68.20
9740;BME280;4909;42.680;26.324;2023-01-25T03:10:21;100027.50;;;3.54;69.29
9740;BME280;4909;42.680;26.324;2023-01-25T03:12:47;100029.38;;;3.76;68.98
9740;BME280;4909;42.680;26.324;2023-01-25T03:15:14;100034.69;;;3.93;68.35
9740;BME280;4909;42.680;26.324;2023-01-25T03:17:42;100039.97;;;4.02;68.20
9740;BME280;4909;42.680;26.324;2023-01-25T03:20:10;100038.31;;;4.24;67.28
9740;BME280;4909;42.680;26.324;2023-01-25T03:22:37;100037.34;;;3.96;67.93
9740;BME280;4909;42.680;26.324;2023-01-25T03:25:05;100033.94;;;4.24;67.71
9740;BME280;4909;42.680;26.324;2023-01-25T03:27:32;100040.91;;;4.13;67.39
9740;BME280;4909;42.680;26.324;2023-01-25T03:29:58;100028.66;;;4.14;67.55
9740;BME280;4909;42.680;26.324;2023-01-25T03:32:25;100037.47;;;4.28;67.45
9740;BME280;4909;42.680;26.324;2023-01-25T03:34:53;100032.28;;;4.60;66.52
9740;BME280;4909;42.680;26.324;2023-01-25T03:37:20;100031.41;;;4.58;66.26
9740;BME280;4909;42.680;26.324;2023-01-25T03:39:47;100032.28;;;4.54;66.67
9740;BME280;4909;42.680;26.324;2023-01-25T03:42:14;100027.00;;;4.40;67.73
9740;BME280;4909;42.680;26.324;2023-01-25T03:44:41;100028.72;;;4.29;68.65
9740;BME280;4909;42.680;26.324;2023-01-25T03:47:07;100033.03;;;4.06;68.67
9740;BME280;4909;42.680;26.324;2023-01-25T03:49:34;100022.47;;;3.95;68.83
9740;BME280;4909;42.680;26.324;2023-01-25T03:52:03;100024.16;;;3.82;69.05
9740;BME280;4909;42.680;26.324;2023-01-25T03:54:29;100023.97;;;3.46;70.57
9740;BME280;4909;42.680;26.324;2023-01-25T03:56:56;100025.78;;;3.59;70.60
9740;BME280;4909;42.680;26.324;2023-01-25T03:59:23;100032.03;;;3.81;71.15
9740;BME280;4909;42.680;26.324;2023-01-25T04:01:50;100024.16;;;3.84;71.16
9740;BME280;4909;42.680;26.324;2023-01-25T04:04:17;100029.41;;;3.85;70.20
9740;BME280;4909;42.680;26.324;2023-01-25T04:06:44;100025.09;;;3.97;69.84
9740;BME280;4909;42.680;26.324;2023-01-25T04:09:12;100027.63;;;3.78;70.35
9740;BME280;4909;42.680;26.324;2023-01-25T04:11:39;100018.09;;;4.03;70.15
9740;BME280;4909;42.680;26.324;2023-01-25T04:14:06;100023.31;;;3.97;70.87
9740;BME280;4909;42.680;26.324;2023-01-25T04:16:33;100020.75;;;4.08;71.05
9740;BME280;4909;42.680;26.324;2023-01-25T04:19:00;100017.28;;;4.10;69.90
9740;BME280;4909;42.680;26.324;2023-01-25T04:21:27;99981.25;;;3.83;70.19
9740;BME280;4909;42.680;26.324;2023-01-25T04:23:54;100012.00;;;4.01;69.81
9740;BME280;4909;42.680;26.324;2023-01-25T04:26:22;100015.53;;;4.23;69.52
9740;BME280;4909;42.680;26.324;2023-01-25T04:28:49;100006.81;;;4.42;69.51
9740;BME280;4909;42.680;26.324;2023-01-25T04:31:15;100019.09;;;4.55;68.27
9740;BME280;4909;42.680;26.324;2023-01-25T04:33:42;100008.63;;;4.58;68.61
9740;BME280;4909;42.680;26.324;2023-01-25T04:36:09;99999.00;;;4.72;67.64
9740;BME280;4909;42.680;26.324;2023-01-25T04:38:36;100007.72;;;4.56;68.20
9740;BME280;4909;42.680;26.324;2023-01-25T04:41:03;100005.97;;;4.35;69.01
9740;BME280;4909;42.680;26.324;2023-01-25T04:43:31;100011.16;;;4.19;69.36
9740;BME280;4909;42.680;26.324;2023-01-25T04:46:00;100019.03;;;4.16;68.69
9740;BME280;4909;42.680;26.324;2023-01-25T04:48:27;100005.00;;;4.21;69.31
9740;BME280;4909;42.680;26.324;2023-01-25T04:50:54;99982.06;;;3.66;69.88
9740;BME280;4909;42.680;26.324;2023-01-25T04:53:21;100008.28;;;3.64;70.77
9740;BME280;4909;42.680;26.324;2023-01-25T04:55:48;100017.97;;;3.67;70.31
9740;BME280;4909;42.680;26.324;2023-01-25T04:58:14;100015.31;;;3.62;70.61
9740;BME280;4909;42.680;26.324;2023-01-25T05:00:43;99980.97;;;3.24;70.49
9740;BME280;4909;42.680;26.324;2023-01-25T05:03:09;100011.56;;;3.19;70.83
9740;BME280;4909;42.680;26.324;2023-01-25T05:05:36;100010.41;;;2.87;72.36
9740;BME280;4909;42.680;26.324;2023-01-25T05:08:03;100000.78;;;2.84;72.93
9740;BME280;4909;42.680;26.324;2023-01-25T05:10:30;100002.63;;;3.00;72.54
9740;BME280;4909;42.680;26.324;2023-01-25T05:12:57;100001.97;;;3.24;72.55
9740;BME280;4909;42.680;26.324;2023-01-25T05:15:24;100005.53;;;3.40;72.58
9740;BME280;4909;42.680;26.324;2023-01-25T05:17:52;100009.19;;;3.65;71.32
9740;BME280;4909;42.680;26.324;2023-01-25T05:20:19;100011.81;;;3.69;71.31
9740;BME280;4909;42.680;26.324;2023-01-25T05:22:46;100006.63;;;3.72;70.94
9740;BME280;4909;42.680;26.324;2023-01-25T05:25:13;100004.13;;;4.10;70.72
9740;BME280;4909;42.680;26.324;2023-01-25T05:27:53;99995.28;;;3.87;69.68
9740;BME280;4909;42.680;26.324;2023-01-25T05:30:20;100015.44;;;3.91;70.37
9740;BME280;4909;42.680;26.324;2023-01-25T05:32:47;100005.88;;;4.11;71.91
9740;BME280;4909;42.680;26.324;2023-01-25T05:35:16;99997.16;;;4.24;70.00
9740;BME280;4909;42.680;26.324;2023-01-25T05:37:43;100002.47;;;4.44;68.74
9740;BME280;4909;42.680;26.324;2023-01-25T05:40:10;100006.81;;;4.30;68.27
9740;BME280;4909;42.680;26.324;2023-01-25T05:42:37;100009.44;;;4.21;68.35
9740;BME280;4909;42.680;26.324;2023-01-25T05:45:05;100005.00;;;4.09;68.24
9740;BME280;4909;42.680;26.324;2023-01-25T05:47:32;100003.22;;;4.08;69.46
9740;BME280;4909;42.680;26.324;2023-01-25T05:49:59;99998.84;;;4.00;69.91
9740;BME280;4909;42.680;26.324;2023-01-25T05:52:27;99996.00;;;3.54;69.96
9740;BME280;4909;42.680;26.324;2023-01-25T05:54:54;99996.94;;;3.68;70.24
9740;BME280;4909;42.680;26.324;2023-01-25T05:57:21;100005.69;;;3.66;69.72
9740;BME280;4909;42.680;26.324;2023-01-25T05:59:48;100010.13;;;3.77;70.35
9740;BME280;4909;42.680;26.324;2023-01-25T06:02:14;100019.75;;;3.75;70.91
9740;BME280;4909;42.680;26.324;2023-01-25T06:04:41;100017.91;;;3.64;70.53
9740;BME280;4909;42.680;26.324;2023-01-25T06:07:08;100003.97;;;3.68;70.61
9740;BME280;4909;42.680;26.324;2023-01-25T06:09:36;100002.88;;;3.32;70.55
9740;BME280;4909;42.680;26.324;2023-01-25T06:12:03;100015.09;;;3.24;71.02
9740;BME280;4909;42.680;26.324;2023-01-25T06:14:31;100013.09;;;2.94;70.74
9740;BME280;4909;42.680;26.324;2023-01-25T06:16:58;99999.94;;;2.88;72.25
9740;BME280;4909;42.680;26.324;2023-01-25T06:19:25;100015.66;;;2.88;72.49
9740;BME280;4909;42.680;26.324;2023-01-25T06:21:52;100013.00;;;2.82;73.12
9740;BME280;4909;42.680;26.324;2023-01-25T06:24:18;100003.44;;;2.89;72.91
9740;BME280;4909;42.680;26.324;2023-01-25T06:26:46;100007.22;;;3.24;74.17
9740;BME280;4909;42.680;26.324;2023-01-25T06:29:13;100015.28;;;3.56;72.89
9740;BME280;4909;42.680;26.324;2023-01-25T06:31:40;100019.81;;;3.86;70.13
9740;BME280;4909;42.680;26.324;2023-01-25T06:34:07;100023.34;;;3.96;69.26
9740;BME280;4909;42.680;26.324;2023-01-25T06:36:34;100027.78;;;4.15;68.13
9740;BME280;4909;42.680;26.324;2023-01-25T06:39:00;100024.16;;;3.85;68.50
9740;BME280;4909;42.680;26.324;2023-01-25T06:41:27;100005.66;;;3.57;68.56
9740;BME280;4909;42.680;26.324;2023-01-25T06:43:56;100003.03;;;3.57;67.90
9740;BME280;4909;42.680;26.324;2023-01-25T06:46:22;100031.09;;;3.67;68.36
9740;BME280;4909;42.680;26.324;2023-01-25T06:48:49;100035.63;;;3.97;67.95
9740;BME280;4909;42.680;26.324;2023-01-25T06:51:17;100041.50;;;3.53;67.04
9740;BME280;4909;42.680;26.324;2023-01-25T06:53:45;100018.56;;;3.23;69.08
9740;BME280;4909;42.680;26.324;2023-01-25T06:56:14;100033.50;;;3.32;69.75
9740;BME280;4909;42.680;26.324;2023-01-25T06:58:42;100008.81;;;3.05;69.03
9740;BME280;4909;42.680;26.324;2023-01-25T07:01:13;100019.34;;;3.09;69.95
9740;BME280;4909;42.680;26.324;2023-01-25T07:03:41;100048.25;;;3.15;69.85
9740;BME280;4909;42.680;26.324;2023-01-25T07:06:09;100042.22;;;3.31;69.69
9740;BME280;4909;42.680;26.324;2023-01-25T07:08:36;100049.28;;;3.41;67.83
9740;BME280;4909;42.680;26.324;2023-01-25T07:11:06;100052.69;;;3.29;68.43
9740;BME280;4909;42.680;26.324;2023-01-25T07:13:34;100047.38;;;3.14;69.29
9740;BME280;4909;42.680;26.324;2023-01-25T07:16:03;100039.47;;;3.16;69.24
9740;BME280;4909;42.680;26.324;2023-01-25T07:18:31;100057.84;;;3.14;68.91
9740;BME280;4909;42.680;26.324;2023-01-25T07:21:02;100032.31;;;2.93;70.12
9740;BME280;4909;42.680;26.324;2023-01-25T07:23:29;100017.59;;;3.12;68.97
9740;BME280;4909;42.680;26.324;2023-01-25T07:25:57;100046.63;;;3.35;68.23
9740;BME280;4909;42.680;26.324;2023-01-25T07:28:24;100040.00;;;2.72;69.42
9740;BME280;4909;42.680;26.324;2023-01-25T07:30:51;100058.47;;;2.86;70.24
9740;BME280;4909;42.680;26.324;2023-01-25T07:33:18;100056.91;;;3.04;69.42
9740;BME280;4909;42.680;26.324;2023-01-25T07:35:47;100050.06;;;3.26;68.91
9740;BME280;4909;42.680;26.324;2023-01-25T07:38:15;100051.13;;;3.53;68.42
9740;BME280;4909;42.680;26.324;2023-01-25T07:40:42;100031.69;;;3.26;67.92
9740;BME280;4909;42.680;26.324;2023-01-25T07:43:09;100054.69;;;3.64;67.80
9740;BME280;4909;42.680;26.324;2023-01-25T07:45:36;100040.72;;;3.66;66.97
9740;BME280;4909;42.680;26.324;2023-01-25T07:48:07;100043.44;;;3.86;66.79
9740;BME280;4909;42.680;26.324;2023-01-25T07:50:37;100038.94;;;3.68;67.23
9740;BME280;4909;42.680;26.324;2023-01-25T07:53:07;100041.56;;;3.65;67.19
9740;BME280;4909;42.680;26.324;2023-01-25T07:55:34;100042.38;;;3.55;67.16
9740;BME280;4909;42.680;26.324;2023-01-25T07:58:01;100037.16;;;3.57;67.37
9740;BME280;4909;42.680;26.324;2023-01-25T08:00:27;100039.97;;;3.98;66.82
9740;BME280;4909;42.680;26.324;2023-01-25T08:02:54;100039.16;;;4.12;65.66
9740;BME280;4909;42.680;26.324;2023-01-25T08:05:21;100035.59;;;3.95;67.82
9740;BME280;4909;42.680;26.324;2023-01-25T08:07:49;100039.13;;;4.03;66.28
9740;BME280;4909;42.680;26.324;2023-01-25T08:10:18;100044.50;;;4.36;65.22
9740;BME280;4909;42.680;26.324;2023-01-25T08:12:44;100039.25;;;4.41;65.13
9740;BME280;4909;42.680;26.324;2023-01-25T08:15:11;100042.75;;;4.42;66.20
9740;BME280;4909;42.680;26.324;2023-01-25T08:17:39;100054.19;;;4.45;65.43
9740;BME280;4909;42.680;26.324;2023-01-25T08:20:07;100051.53;;;4.45;65.44
9740;BME280;4909;42.680;26.324;2023-01-25T08:22:34;100057.75;;;4.79;65.15
9740;BME280;4909;42.680;26.324;2023-01-25T08:25:01;100030.53;;;4.59;63.75
9740;BME280;4909;42.680;26.324;2023-01-25T08:27:29;100062.13;;;4.78;64.66
9740;BME280;4909;42.680;26.324;2023-01-25T08:29:56;100054.25;;;4.95;63.83
9740;BME280;4909;42.680;26.324;2023-01-25T08:32:23;100047.25;;;5.03;62.84
9740;BME280;4909;42.680;26.324;2023-01-25T08:34:50;100053.38;;;5.31;62.09
9740;BME280;4909;42.680;26.324;2023-01-25T08:37:16;100055.97;;;5.33;61.65
9740;BME280;4909;42.680;26.324;2023-01-25T08:39:43;100050.72;;;5.19;61.37
9740;BME280;4909;42.680;26.324;2023-01-25T08:42:10;100061.28;;;5.02;61.99
9740;BME280;4909;42.680;26.324;2023-01-25T08:44:38;100056.84;;;4.81;63.17
9740;BME280;4909;42.680;26.324;2023-01-25T08:47:05;100055.13;;;4.82;62.46
9740;BME280;4909;42.680;26.324;2023-01-25T08:49:31;100048.97;;;4.86;63.41
9740;BME280;4909;42.680;26.324;2023-01-25T08:51:59;100043.66;;;4.51;64.29
9740;BME280;4909;42.680;26.324;2023-01-25T08:54:26;100045.41;;;4.48;64.51
9740;BME280;4909;42.680;26.324;2023-01-25T08:56:53;100040.13;;;4.43;64.91
9740;BME280;4909;42.680;26.324;2023-01-25T08:59:20;99984.75;;;3.84;65.14
9740;BME280;4909;42.680;26.324;2023-01-25T09:01:48;100052.38;;;4.26;66.10
9740;BME280;4909;42.680;26.324;2023-01-25T09:04:15;100046.28;;;4.56;64.03
9740;BME280;4909;42.680;26.324;2023-01-25T09:06:42;100041.03;;;4.48;64.82
9740;BME280;4909;42.680;26.324;2023-01-25T09:09:10;100048.97;;;4.69;63.85
9740;BME280;4909;42.680;26.324;2023-01-25T09:11:36;100043.69;;;4.75;65.01
9740;BME280;4909;42.680;26.324;2023-01-25T09:14:04;100042.84;;;5.07;63.15
9740;BME280;4909;42.680;26.324;2023-01-25T09:16:31;100037.56;;;5.20;62.70
9740;BME280;4909;42.680;26.324;2023-01-25T09:19:02;100034.97;;;5.02;62.47
9740;BME280;4909;42.680;26.324;2023-01-25T09:21:30;100037.56;;;5.23;63.46
9740;BME280;4909;42.680;26.324;2023-01-25T09:23:57;100028.72;;;5.58;62.02
9740;BME280;4909;42.680;26.324;2023-01-25T09:26:24;100025.13;;;5.86;61.49
9740;BME280;4909;42.680;26.324;2023-01-25T09:28:52;100025.94;;;6.11;59.11
9740;BME280;4909;42.680;26.324;2023-01-25T09:31:20;100019.88;;;5.97;60.99
9740;BME280;4909;42.680;26.324;2023-01-25T09:33:49;100017.19;;;6.07;61.29
9740;BME280;4909;42.680;26.324;2023-01-25T09:36:18;100016.41;;;5.75;61.64
9740;BME280;4909;42.680;26.324;2023-01-25T09:38:45;100013.75;;;5.90;60.78
9740;BME280;4909;42.680;26.324;2023-01-25T09:41:21;99993.59;;;5.71;60.65
9740;BME280;4909;42.680;26.324;2023-01-25T09:44:02;99984.88;;;5.49;63.42
9740;BME280;4909;42.680;26.324;2023-01-25T09:46:39;99990.16;;;5.45;62.59
9740;BME280;4909;42.680;26.324;2023-01-25T09:49:20;99984.91;;;5.36;63.23
9740;BME280;4909;42.680;26.324;2023-01-25T09:52:05;99985.81;;;5.16;62.63
9740;BME280;4909;42.680;26.324;2023-01-25T09:54:39;99977.84;;;5.56;63.31
9740;BME280;4909;42.680;26.324;2023-01-25T09:57:10;99981.25;;;5.76;61.00
9740;BME280;4909;42.680;26.324;2023-01-25T09:59:40;99967.19;;;5.85;61.85
9740;BME280;4909;42.680;26.324;2023-01-25T10:02:18;99954.91;;;5.85;60.63
9740;BME280;4909;42.680;26.324;2023-01-25T10:04:50;99964.59;;;5.76;61.55
9740;BME280;4909;42.680;26.324;2023-01-25T10:07:24;99945.19;;;5.98;61.62
9740;BME280;4909;42.680;26.324;2023-01-25T10:09:58;99943.53;;;5.66;61.40
9740;BME280;4909;42.680;26.324;2023-01-25T10:12:32;99943.44;;;5.86;62.00
9740;BME280;4909;42.680;26.324;2023-01-25T10:15:00;99939.09;;;5.76;62.16
9740;BME280;4909;42.680;26.324;2023-01-25T10:17:32;99926.88;;;5.63;61.75
9740;BME280;4909;42.680;26.324;2023-01-25T10:20:08;99889.09;;;5.70;61.44
9740;BME280;4909;42.680;26.324;2023-01-25T10:22:45;99911.97;;;5.60;62.35
9740;BME280;4909;42.680;26.324;2023-01-25T10:25:23;99907.63;;;5.49;62.99
9740;BME280;4909;42.680;26.324;2023-01-25T10:28:05;99898.81;;;5.59;63.09
9740;BME280;4909;42.680;26.324;2023-01-25T10:30:39;99882.97;;;5.63;64.43
9740;BME280;4909;42.680;26.324;2023-01-25T10:33:17;99878.66;;;5.55;63.42
9740;BME280;4909;42.680;26.324;2023-01-25T10:35:48;99891.75;;;5.62;63.96
9740;BME280;4909;42.680;26.324;2023-01-25T10:38:24;99867.28;;;5.45;63.44
9740;BME280;4909;42.680;26.324;2023-01-25T10:40:55;99866.34;;;5.52;64.63
9740;BME280;4909;42.680;26.324;2023-01-25T10:43:24;99872.44;;;5.65;64.30
9740;BME280;4909;42.680;26.324;2023-01-25T10:45:51;99838.16;;;5.73;63.24
9740;BME280;4909;42.680;26.324;2023-01-25T10:48:19;99867.16;;;5.68;63.25
9740;BME280;4909;42.680;26.324;2023-01-25T10:50:49;99860.13;;;5.67;64.34
9740;BME280;4909;42.680;26.324;2023-01-25T10:53:26;99861.78;;;5.94;63.00
9740;BME280;4909;42.680;26.324;2023-01-25T10:55:57;99852.16;;;5.87;63.54
9740;BME280;4909;42.680;26.324;2023-01-25T10:58:30;99850.34;;;5.86;64.40
9740;BME280;4909;42.680;26.324;2023-01-25T11:00:57;99856.56;;;5.80;64.52
9740;BME280;4909;42.680;26.324;2023-01-25T11:03:33;99853.06;;;5.77;64.64
9740;BME280;4909;42.680;26.324;2023-01-25T11:06:00;99853.91;;;5.89;64.34
9740;BME280;4909;42.680;26.324;2023-01-25T11:08:33;99853.09;;;5.69;63.97
9740;BME280;4909;42.680;26.324;2023-01-25T11:11:22;99848.72;;;5.71;65.13
9740;BME280;4909;42.680;26.324;2023-01-25T11:13:51;99839.13;;;5.53;65.90
9740;BME280;4909;42.680;26.324;2023-01-25T11:16:27;99811.13;;;5.42;66.42
9740;BME280;4909;42.680;26.324;2023-01-25T11:18:57;99826.00;;;5.47;65.70
9740;BME280;4909;42.680;26.324;2023-01-25T11:21:25;99826.81;;;5.58;65.75
9740;BME280;4909;42.680;26.324;2023-01-25T11:24:15;99802.47;;;5.09;66.48
9740;BME280;4909;42.680;26.324;2023-01-25T11:26:43;99815.59;;;5.20;66.96
9740;BME280;4909;42.680;26.324;2023-01-25T11:29:13;99811.16;;;5.34;67.92
9740;BME280;4909;42.680;26.324;2023-01-25T11:31:42;99801.41;;;5.56;66.34
9740;BME280;4909;42.680;26.324;2023-01-25T11:34:11;99776.78;;;5.58;66.86
9740;BME280;4909;42.680;26.324;2023-01-25T11:36:50;99806.63;;;5.60;66.78
9740;BME280;4909;42.680;26.324;2023-01-25T11:39:32;99807.63;;;5.41;67.10
9740;BME280;4909;42.680;26.324;2023-01-25T11:42:11;99793.53;;;5.42;68.11
9740;BME280;4909;42.680;26.324;2023-01-25T11:45:03;99798.81;;;5.45;67.76
9740;BME280;4909;42.680;26.324;2023-01-25T11:47:41;99788.44;;;5.18;68.51
9740;BME280;4909;42.680;26.324;2023-01-25T11:50:14;99792.84;;;5.04;69.06
9740;BME280;4909;42.680;26.324;2023-01-25T11:52:59;99800.66;;;5.25;68.63
9740;BME280;4909;42.680;26.324;2023-01-25T11:55:33;99772.69;;;5.07;69.13
9740;BME280;4909;42.680;26.324;2023-01-25T11:58:23;99792.84;;;5.08;69.25
9740;BME280;4909;42.680;26.324;2023-01-25T12:01:05;99793.78;;;4.97;70.13
9740;BME280;4909;42.680;26.324;2023-01-25T12:03:59;99803.38;;;5.04;71.18
9740;BME280;4909;42.680;26.324;2023-01-25T12:06:39;99762.19;;;5.00;69.62
9740;BME280;4909;42.680;26.324;2023-01-25T12:09:25;99801.50;;;5.33;69.67
9740;BME280;4909;42.680;26.324;2023-01-25T12:12:09;99804.28;;;5.01;69.63
9740;BME280;4909;42.680;26.324;2023-01-25T12:14:51;99798.13;;;5.07;70.21
9740;BME280;4909;42.680;26.324;2023-01-25T12:17:31;99755.25;;;4.76;71.36
9740;BME280;4909;42.680;26.324;2023-01-25T12:20:17;99799.09;;;4.81;71.65
9740;BME280;4909;42.680;26.324;2023-01-25T12:23:04;99780.66;;;4.80;71.50
9740;BME280;4909;42.680;26.324;2023-01-25T12:25:46;99792.09;;;4.79;72.19
9740;BME280;4909;42.680;26.324;2023-01-25T12:28:19;99786.81;;;4.77;71.45
9740;BME280;4909;42.680;26.324;2023-01-25T12:30:52;99779.84;;;4.66;71.66
9740;BME280;4909;42.680;26.324;2023-01-25T12:33:26;99785.91;;;4.85;72.42
9740;BME280;4909;42.680;26.324;2023-01-25T12:36:00;99772.72;;;4.97;71.90
9740;BME280;4909;42.680;26.324;2023-01-25T12:38:34;99744.78;;;4.68;71.46
9740;BME280;4909;42.680;26.324;2023-01-25T12:41:09;99743.91;;;4.60;72.12
9740;BME280;4909;42.680;26.324;2023-01-25T12:43:44;99772.78;;;4.81;72.14
9740;BME280;4909;42.680;26.324;2023-01-25T12:46:15;99776.25;;;4.91;72.38
9740;BME280;4909;42.680;26.324;2023-01-25T12:48:48;99775.34;;;5.00;71.80
9740;BME280;4909;42.680;26.324;2023-01-25T12:51:17;99767.38;;;5.13;71.13
9740;BME280;4909;42.680;26.324;2023-01-25T12:53:47;99770.84;;;5.23;71.00
9740;BME280;4909;42.680;26.324;2023-01-25T12:56:27;99754.28;;;5.00;71.02
9740;BME280;4909;42.680;26.324;2023-01-25T12:59:01;99757.88;;;4.80;71.69
9740;BME280;4909;42.680;26.324;2023-01-25T13:01:37;99756.91;;;5.01;72.07
9740;BME280;4909;42.680;26.324;2023-01-25T13:04:22;99759.44;;;5.24;71.74
9740;BME280;4909;42.680;26.324;2023-01-25T13:06:55;99764.69;;;5.27;70.89
9740;BME280;4909;42.680;26.324;2023-01-25T13:09:27;99761.25;;;5.13;70.38
9740;BME280;4909;42.680;26.324;2023-01-25T13:11:57;99764.81;;;5.03;72.27
9740;BME280;4909;42.680;26.324;2023-01-25T13:14:30;99758.59;;;5.22;72.40
9740;BME280;4909;42.680;26.324;2023-01-25T13:19:55;99750.88;;;4.78;72.56
9740;BME280;4909;42.680;26.324;2023-01-25T13:22:54;99752.63;;;4.84;72.43
9740;BME280;4909;42.680;26.324;2023-01-25T13:25:23;99701.75;;;4.80;70.96
9740;BME280;4909;42.680;26.324;2023-01-25T13:27:50;99756.00;;;5.08;71.28
9740;BME280;4909;42.680;26.324;2023-01-25T13:30:30;99728.03;;;4.91;71.99
9740;BME280;4909;42.680;26.324;2023-01-25T13:33:00;99728.06;;;4.81;71.98